createdAt,value
2023-04-26T00:02:16.105Z,9.90
2023-04-26T00:05:07.969Z,10.00
2023-04-26T00:07:58.383Z,9.90
2023-04-26T00:10:47.226Z,9.90
2023-04-26T00:13:37.308Z,9.80
2023-04-26T00:16:27.012Z,9.70
2023-04-26T00:19:16.301Z,9.70
2023-04-26T00:22:06.665Z,9.70
2023-04-26T00:24:55.489Z,9.80
2023-04-26T00:27:44.280Z,9.80
2023-04-26T00:30:34.561Z,9.70
2023-04-26T00:33:23.286Z,9.70
2023-04-26T00:36:12.156Z,9.60
2023-04-26T00:39:02.761Z,9.70
2023-04-26T00:41:52.424Z,9.70
2023-04-26T00:44:41.408Z,9.40
2023-04-26T00:47:32.046Z,9.50
2023-04-26T00:50:22.024Z,9.40
2023-04-26T00:53:14.628Z,9.50
2023-04-26T00:56:05.287Z,9.20
2023-04-26T00:58:54.257Z,9.20
2023-04-26T01:01:43.443Z,9.40
2023-04-26T01:04:33.585Z,9.30
2023-04-26T01:07:22.477Z,9.50
2023-04-26T01:10:12.484Z,9.40
2023-04-26T01:13:03.813Z,9.40
2023-04-26T01:15:53.206Z,9.50
2023-04-26T01:18:43.128Z,9.40
2023-04-26T01:21:33.596Z,9.50
2023-04-26T01:24:24.234Z,9.50
2023-04-26T01:27:13.022Z,9.40
2023-04-26T01:30:03.558Z,9.50
2023-04-26T01:32:52.919Z,9.40
2023-04-26T01:35:41.583Z,9.50
2023-04-26T01:38:30.246Z,9.50
2023-04-26T01:41:20.875Z,9.60
2023-04-26T01:44:13.166Z,9.50
2023-04-26T01:47:02.040Z,9.40
2023-04-26T01:49:50.852Z,9.40
2023-04-26T01:52:39.552Z,9.50
2023-04-26T01:55:28.500Z,9.50
2023-04-26T01:58:18.532Z,9.60
2023-04-26T02:01:08.882Z,9.50
2023-04-26T02:03:59.079Z,9.40
2023-04-26T02:06:47.932Z,9.40
2023-04-26T02:09:39.916Z,9.30
2023-04-26T02:12:28.646Z,9.40
2023-04-26T02:15:18.767Z,9.50
2023-04-26T02:18:07.713Z,9.30
2023-04-26T02:20:57.556Z,9.40
2023-04-26T02:23:46.391Z,9.50
2023-04-26T02:26:35.330Z,9.40
2023-04-26T02:29:36.233Z,9.50
2023-04-26T02:32:33.338Z,9.40
2023-04-26T02:35:22.475Z,9.40
2023-04-26T02:38:11.719Z,9.50
2023-04-26T02:41:00.978Z,9.30
2023-04-26T02:43:49.804Z,9.30
2023-04-26T02:46:38.724Z,9.40
2023-04-26T02:49:29.792Z,9.40
2023-04-26T02:52:18.668Z,9.40
2023-04-26T02:55:08.697Z,9.40
2023-04-26T02:57:57.666Z,9.40
2023-04-26T03:00:49.774Z,9.40
2023-04-26T03:03:38.677Z,9.30
2023-04-26T03:06:29.925Z,9.30
2023-04-26T03:09:19.386Z,9.30
2023-04-26T03:12:08.779Z,9.40
2023-04-26T03:14:59.329Z,9.40
2023-04-26T03:17:48.342Z,9.40
2023-04-26T03:20:37.462Z,9.40
2023-04-26T03:23:27.765Z,9.40
2023-04-26T03:26:16.605Z,9.30
2023-04-26T03:29:07.005Z,9.20
2023-04-26T03:31:55.809Z,9.20
2023-04-26T03:34:48.796Z,9.00
2023-04-26T03:37:39.861Z,9.00
2023-04-26T03:40:32.386Z,8.90
2023-04-26T03:43:21.266Z,8.80
2023-04-26T03:46:10.275Z,8.70
2023-04-26T03:48:59.385Z,8.80
2023-04-26T03:51:48.093Z,8.70
2023-04-26T03:54:37.894Z,8.70
2023-04-26T03:57:28.343Z,8.80
2023-04-26T04:00:17.401Z,8.70
2023-04-26T04:03:06.984Z,8.60
2023-04-26T04:05:56.302Z,8.60
2023-04-26T04:08:45.594Z,8.50
2023-04-26T04:11:34.945Z,8.50
2023-04-26T04:14:25.531Z,8.50
2023-04-26T04:17:14.340Z,8.50
2023-04-26T04:20:05.345Z,8.50
2023-04-26T04:22:55.428Z,8.60
2023-04-26T04:25:45.588Z,8.70
2023-04-26T04:28:35.442Z,8.70
2023-04-26T04:31:25.663Z,8.70
2023-04-26T04:34:14.751Z,8.80
2023-04-26T04:37:05.070Z,8.90
2023-04-26T04:39:54.698Z,8.90
2023-04-26T04:42:45.065Z,8.90
2023-04-26T04:45:34.442Z,9.00
2023-04-26T04:48:25.240Z,8.90
2023-04-26T04:51:14.025Z,8.80
2023-04-26T04:54:12.077Z,8.80
2023-04-26T04:57:01.290Z,8.80
2023-04-26T04:59:50.298Z,8.90
2023-04-26T05:02:39.819Z,8.80
2023-04-26T05:05:30.184Z,8.80
2023-04-26T05:08:19.284Z,8.90
2023-04-26T05:11:08.382Z,9.00
2023-04-26T05:13:57.750Z,8.90
2023-04-26T05:16:47.052Z,9.00
2023-04-26T05:19:35.944Z,9.00
2023-04-26T05:22:26.294Z,9.00
2023-04-26T05:25:15.612Z,9.10
2023-04-26T05:28:05.605Z,9.00
2023-04-26T05:31:24.004Z,8.90
2023-04-26T05:34:31.174Z,9.00
2023-04-26T05:37:20.699Z,9.30
2023-04-26T05:40:12.540Z,10.00
2023-04-26T05:43:02.416Z,10.20
2023-04-26T05:45:53.068Z,10.30
2023-04-26T05:48:42.373Z,10.00
2023-04-26T05:51:31.210Z,10.00
2023-04-26T05:54:20.592Z,9.90
2023-04-26T05:57:11.757Z,9.90
2023-04-26T06:00:01.042Z,10.00
2023-04-26T06:02:50.803Z,10.00
2023-04-26T06:05:40.031Z,10.00
2023-04-26T06:08:29.608Z,10.00
2023-04-26T06:11:18.808Z,10.10
2023-04-26T06:14:16.886Z,10.10
2023-04-26T06:17:12.419Z,10.00
2023-04-26T06:20:02.012Z,10.10
2023-04-26T06:22:51.028Z,10.10
2023-04-26T06:25:44.204Z,10.30
2023-04-26T06:28:33.750Z,10.50
2023-04-26T06:31:24.030Z,10.80
2023-04-26T06:34:14.444Z,10.90
2023-04-26T06:37:04.059Z,11.10
2023-04-26T06:39:53.722Z,11.80
2023-04-26T06:42:43.049Z,13.00
2023-04-26T06:45:51.985Z,12.80
2023-04-26T06:48:43.290Z,12.20
2023-04-26T06:51:32.475Z,11.80
2023-04-26T06:54:21.440Z,12.40
2023-04-26T06:57:10.160Z,12.80
2023-04-26T06:59:59.233Z,13.20
2023-04-26T07:02:48.065Z,13.50
2023-04-26T07:05:38.205Z,13.70
2023-04-26T07:08:27.086Z,14.00
2023-04-26T07:11:15.734Z,14.10
2023-04-26T07:14:04.651Z,14.40
2023-04-26T07:16:53.648Z,14.40
2023-04-26T07:19:42.367Z,14.50
2023-04-26T07:22:32.482Z,14.50
2023-04-26T07:25:21.072Z,14.20
2023-04-26T07:28:10.860Z,14.40
2023-04-26T07:31:00.222Z,14.80
2023-04-26T07:33:49.549Z,14.70
2023-04-26T07:36:38.323Z,14.00
2023-04-26T07:39:28.495Z,14.60
2023-04-26T07:42:17.393Z,14.40
2023-04-26T07:45:07.392Z,14.40
2023-04-26T07:47:56.271Z,13.60
2023-04-26T07:50:45.360Z,13.80
2023-04-26T07:53:34.134Z,13.90
2023-04-26T07:56:28.854Z,13.70
2023-04-26T07:59:17.617Z,13.90
2023-04-26T08:02:06.767Z,14.60
2023-04-26T08:04:57.516Z,15.20
2023-04-26T08:07:46.499Z,15.70
2023-04-26T08:10:35.320Z,15.60
2023-04-26T08:13:28.592Z,16.00
2023-04-26T08:16:18.242Z,15.40
2023-04-26T08:19:07.141Z,14.10
2023-04-26T08:21:55.809Z,13.50
2023-04-26T08:24:49.576Z,13.20
2023-04-26T08:27:38.291Z,12.80
2023-04-26T08:30:28.873Z,12.90
2023-04-26T08:33:19.645Z,14.90
2023-04-26T08:36:08.940Z,15.70
2023-04-26T08:38:58.281Z,14.70
2023-04-26T08:41:53.322Z,14.00
2023-04-26T08:44:44.243Z,13.50
2023-04-26T08:47:41.424Z,13.00
2023-04-26T08:50:33.671Z,13.30
2023-04-26T08:53:22.508Z,13.30
2023-04-26T08:56:13.496Z,12.90
2023-04-26T08:59:03.302Z,12.70
2023-04-26T09:01:52.128Z,12.40
2023-04-26T09:04:42.818Z,12.10
2023-04-26T09:07:37.378Z,11.80
2023-04-26T09:10:27.017Z,11.80
2023-04-26T09:13:16.036Z,11.80
2023-04-26T09:16:05.217Z,11.70
2023-04-26T09:18:57.356Z,12.00
2023-04-26T09:21:48.632Z,12.50
2023-04-26T09:24:53.351Z,12.30
2023-04-26T09:27:44.396Z,12.00
2023-04-26T09:30:40.608Z,11.70
2023-04-26T09:33:29.483Z,11.70
2023-04-26T09:36:18.307Z,11.60
2023-04-26T09:39:09.105Z,11.50
2023-04-26T09:41:58.207Z,11.50
2023-04-26T09:44:47.595Z,11.50
2023-04-26T09:47:36.509Z,11.80
2023-04-26T09:50:32.418Z,14.90
2023-04-26T09:53:33.428Z,14.40
2023-04-26T09:56:23.631Z,13.60
2023-04-26T09:59:12.768Z,12.80
2023-04-26T10:02:02.171Z,12.30
2023-04-26T10:04:52.185Z,12.10
2023-04-26T10:07:41.641Z,11.90
2023-04-26T10:10:31.361Z,12.00
2023-04-26T10:13:22.445Z,12.30
2023-04-26T10:16:11.833Z,13.70
2023-04-26T10:19:01.133Z,16.30
2023-04-26T10:21:52.632Z,15.40
2023-04-26T10:24:41.696Z,14.70
2023-04-26T10:27:53.494Z,13.80
2023-04-26T10:31:00.652Z,13.10
2023-04-26T10:34:21.685Z,12.70
2023-04-26T10:37:14.479Z,13.30
2023-04-26T10:40:24.499Z,13.40
2023-04-26T10:43:33.037Z,13.20
2023-04-26T10:46:43.454Z,13.00
2023-04-26T10:49:45.958Z,12.60
2023-04-26T10:52:35.471Z,12.40
2023-04-26T10:55:41.063Z,12.30
2023-04-26T10:58:31.650Z,12.30
2023-04-26T11:01:21.446Z,12.50
2023-04-26T11:04:14.413Z,12.40
2023-04-26T11:07:05.350Z,12.20
2023-04-26T11:09:54.507Z,12.30
2023-04-26T11:12:43.553Z,12.70
2023-04-26T11:15:33.468Z,13.10
2023-04-26T11:18:22.675Z,13.00
2023-04-26T11:21:13.002Z,12.60
2023-04-26T11:24:03.576Z,12.60
2023-04-26T11:26:55.704Z,12.20
2023-04-26T11:29:44.427Z,11.80
2023-04-26T11:32:36.328Z,11.60
2023-04-26T11:35:27.759Z,11.80
2023-04-26T11:38:16.854Z,11.90
2023-04-26T11:41:07.201Z,12.00
2023-04-26T11:43:56.073Z,12.80
2023-04-26T11:46:45.021Z,12.90
2023-04-26T11:49:35.530Z,13.00
2023-04-26T11:52:25.455Z,12.90
2023-04-26T11:55:14.915Z,12.80
2023-04-26T11:58:13.191Z,13.50
2023-04-26T12:01:03.532Z,13.10
2023-04-26T12:03:53.842Z,12.70
2023-04-26T12:06:46.584Z,12.50
2023-04-26T12:09:35.428Z,12.20
2023-04-26T12:12:28.524Z,12.20
2023-04-26T12:15:19.477Z,12.20
2023-04-26T12:18:10.995Z,12.20
2023-04-26T12:21:00.806Z,12.30
2023-04-26T12:23:49.613Z,12.40
2023-04-26T12:26:45.872Z,12.40
2023-04-26T12:29:35.213Z,13.00
2023-04-26T12:32:25.766Z,13.10
2023-04-26T12:35:14.916Z,13.00
2023-04-26T12:38:04.023Z,12.70
2023-04-26T12:40:52.932Z,12.60
2023-04-26T12:43:41.972Z,12.00
2023-04-26T12:46:31.159Z,11.90
2023-04-26T12:49:21.420Z,11.80
2023-04-26T12:52:10.382Z,11.90
2023-04-26T12:54:59.323Z,11.90
2023-04-26T12:57:48.106Z,12.20
2023-04-26T13:00:37.211Z,12.50
2023-04-26T13:03:26.369Z,12.70
2023-04-26T13:06:16.827Z,12.70
2023-04-26T13:09:07.948Z,12.50
2023-04-26T13:11:57.059Z,12.10
2023-04-26T13:14:46.266Z,12.00
2023-04-26T13:17:36.297Z,12.00
2023-04-26T13:20:26.689Z,11.90
2023-04-26T13:23:18.114Z,11.90
2023-04-26T13:26:07.087Z,11.80
2023-04-26T13:28:56.287Z,12.00
2023-04-26T13:31:45.217Z,12.30
2023-04-26T13:34:34.138Z,12.40
2023-04-26T13:37:23.949Z,12.50
2023-04-26T13:40:14.906Z,12.50
2023-04-26T13:43:04.311Z,12.30
2023-04-26T13:45:53.183Z,12.30
2023-04-26T13:48:42.390Z,12.40
2023-04-26T13:51:34.268Z,12.20
2023-04-26T13:54:25.995Z,12.20
2023-04-26T13:57:16.620Z,12.20
2023-04-26T14:00:06.200Z,12.00
2023-04-26T14:03:00.972Z,12.00
2023-04-26T14:05:50.017Z,12.00
2023-04-26T14:08:38.687Z,12.10
2023-04-26T14:11:27.711Z,12.30
2023-04-26T14:14:18.144Z,12.50
2023-04-26T14:17:06.856Z,12.40
2023-04-26T14:19:56.137Z,12.50
2023-04-26T14:22:44.916Z,12.30
2023-04-26T14:25:34.950Z,12.10
2023-04-26T14:28:24.350Z,12.00
2023-04-26T14:31:17.784Z,12.00
2023-04-26T14:34:06.628Z,11.90
2023-04-26T14:36:57.388Z,11.90
2023-04-26T14:39:46.442Z,11.80
2023-04-26T14:42:36.027Z,11.90
2023-04-26T14:45:36.922Z,11.70
2023-04-26T14:48:33.672Z,11.60
2023-04-26T14:51:24.472Z,11.70
2023-04-26T14:54:13.299Z,11.70
2023-04-26T14:57:02.891Z,11.70
2023-04-26T14:59:51.787Z,11.60
2023-04-26T15:02:40.639Z,11.60
2023-04-26T15:05:30.992Z,11.70
2023-04-26T15:08:20.526Z,11.70
2023-04-26T15:11:09.725Z,11.70
2023-04-26T15:13:58.392Z,11.60
2023-04-26T15:16:47.600Z,11.60
2023-04-26T15:19:37.515Z,11.70
2023-04-26T15:22:27.739Z,11.80
2023-04-26T15:25:17.304Z,11.80
2023-04-26T15:28:06.303Z,11.80
2023-04-26T15:31:03.434Z,11.70
2023-04-26T15:33:52.281Z,11.60
2023-04-26T15:36:40.908Z,11.60
2023-04-26T15:39:31.102Z,11.60
2023-04-26T15:42:19.918Z,11.60
2023-04-26T15:45:10.019Z,11.60
2023-04-26T15:47:58.919Z,11.50
2023-04-26T15:50:47.683Z,11.30
2023-04-26T15:53:39.265Z,11.40
2023-04-26T15:56:33.480Z,11.40
2023-04-26T15:59:22.275Z,11.40
2023-04-26T16:02:11.708Z,11.60
2023-04-26T16:05:00.769Z,11.40
2023-04-26T16:07:49.703Z,11.40
2023-04-26T16:10:38.620Z,11.20
2023-04-26T16:13:28.914Z,11.10
2023-04-26T16:16:18.289Z,11.10
2023-04-26T16:19:08.721Z,11.20
2023-04-26T16:21:57.730Z,11.20
2023-04-26T16:24:46.535Z,11.10
2023-04-26T16:27:35.215Z,11.20
2023-04-26T16:30:25.454Z,11.20
2023-04-26T16:33:14.186Z,11.20
2023-04-26T16:36:03.177Z,11.10
2023-04-26T16:38:51.774Z,11.20
2023-04-26T16:41:40.968Z,11.40
2023-04-26T16:44:29.746Z,11.20
2023-04-26T16:47:19.900Z,11.20
2023-04-26T16:50:09.112Z,11.30
2023-04-26T16:52:57.693Z,11.10
2023-04-26T16:55:46.402Z,11.20
2023-04-26T16:58:35.068Z,11.10
2023-04-26T17:01:23.823Z,11.00
2023-04-26T17:04:14.080Z,11.00
2023-04-26T17:07:03.367Z,10.90
2023-04-26T17:09:53.906Z,10.90
2023-04-26T17:12:42.712Z,10.90
2023-04-26T17:15:33.736Z,11.00
2023-04-26T17:18:22.396Z,10.90
2023-04-26T17:21:12.470Z,10.90
2023-04-26T17:24:01.646Z,11.00
2023-04-26T17:26:50.360Z,11.00
2023-04-26T17:29:39.151Z,10.90
2023-04-26T17:32:28.565Z,10.90
2023-04-26T17:35:17.687Z,10.80
2023-04-26T17:38:07.780Z,10.80
2023-04-26T17:40:56.556Z,10.80
2023-04-26T17:43:45.448Z,10.80
2023-04-26T17:46:34.135Z,10.70
2023-04-26T17:49:25.874Z,10.80
2023-04-26T17:52:14.586Z,10.90
2023-04-26T17:55:05.216Z,10.70
2023-04-26T17:57:54.265Z,10.60
2023-04-26T18:00:43.487Z,10.60
2023-04-26T18:03:35.928Z,10.60
2023-04-26T18:06:24.849Z,10.60
2023-04-26T18:09:13.726Z,10.70
2023-04-26T18:12:04.162Z,10.80
2023-04-26T18:14:53.734Z,10.60
2023-04-26T18:17:43.235Z,10.60
2023-04-26T18:20:32.528Z,10.50
2023-04-26T18:23:21.768Z,10.50
2023-04-26T18:26:13.907Z,10.50
2023-04-26T18:29:04.837Z,10.70
2023-04-26T18:31:53.978Z,10.60
2023-04-26T18:34:44.202Z,10.60
2023-04-26T18:37:33.360Z,10.60
2023-04-26T18:40:22.198Z,10.50
2023-04-26T18:43:14.112Z,10.50
2023-04-26T18:46:04.453Z,10.50
2023-04-26T18:48:53.489Z,10.50
2023-04-26T18:51:42.249Z,10.50
2023-04-26T18:54:32.602Z,10.50
2023-04-26T18:57:22.914Z,10.50
2023-04-26T19:00:16.123Z,10.40
2023-04-26T19:03:06.338Z,10.50
2023-04-26T19:05:55.259Z,10.50
2023-04-26T19:08:44.369Z,10.40
2023-04-26T19:11:33.407Z,10.30
2023-04-26T19:14:22.116Z,10.20
2023-04-26T19:17:12.096Z,10.30
2023-04-26T19:20:03.033Z,10.40
2023-04-26T19:22:51.921Z,10.30
2023-04-26T19:25:41.063Z,10.20
2023-04-26T19:28:29.890Z,10.10
2023-04-26T19:31:18.748Z,10.00
2023-04-26T19:34:07.652Z,10.10
2023-04-26T19:36:57.775Z,10.10
2023-04-26T19:39:46.797Z,10.00
2023-04-26T19:42:35.670Z,9.80
2023-04-26T19:45:24.626Z,9.80
2023-04-26T19:48:13.534Z,9.80
2023-04-26T19:51:02.370Z,10.00
2023-04-26T19:53:52.489Z,10.00
2023-04-26T19:56:41.563Z,9.90
2023-04-26T19:59:30.260Z,9.90
2023-04-26T20:02:32.336Z,9.90
2023-04-26T20:05:21.465Z,9.90
2023-04-26T20:08:10.662Z,10.00
2023-04-26T20:11:05.168Z,9.90
2023-04-26T20:13:54.166Z,9.70
2023-04-26T20:16:43.030Z,9.80
2023-04-26T20:19:32.122Z,9.60
2023-04-26T20:22:21.111Z,9.60
2023-04-26T20:25:11.174Z,9.70
2023-04-26T20:28:02.208Z,9.50
2023-04-26T20:30:51.249Z,9.50
2023-04-26T20:33:40.203Z,9.40
2023-04-26T20:36:29.058Z,9.40
2023-04-26T20:39:17.842Z,9.40
2023-04-26T20:42:06.774Z,9.40
2023-04-26T20:44:58.310Z,9.40
2023-04-26T20:47:48.369Z,9.40
2023-04-26T20:50:37.339Z,9.30
2023-04-26T20:53:27.158Z,9.20
2023-04-26T20:56:16.329Z,9.10
2023-04-26T20:59:07.382Z,9.20
2023-04-26T21:01:57.978Z,9.10
2023-04-26T21:04:47.130Z,9.10
2023-04-26T21:07:36.309Z,9.10
2023-04-26T21:10:25.011Z,9.10
2023-04-26T21:13:13.982Z,9.00
2023-04-26T21:16:03.139Z,9.10
2023-04-26T21:18:53.714Z,9.00
2023-04-26T21:21:44.664Z,8.90
2023-04-26T21:24:33.757Z,8.90
2023-04-26T21:27:22.657Z,8.80
2023-04-26T21:30:12.739Z,8.90
2023-04-26T21:33:01.592Z,8.80
2023-04-26T21:35:52.590Z,8.90
2023-04-26T21:38:41.454Z,8.80
2023-04-26T21:41:31.090Z,8.80
2023-04-26T21:44:20.104Z,8.60
2023-04-26T21:47:09.038Z,8.60
2023-04-26T21:49:57.909Z,8.70
2023-04-26T21:52:48.199Z,8.60
2023-04-26T21:55:36.766Z,8.60
2023-04-26T21:58:25.493Z,8.40
2023-04-26T22:01:15.785Z,8.40
2023-04-26T22:04:08.586Z,8.40
2023-04-26T22:06:57.614Z,8.30
2023-04-26T22:09:48.526Z,8.40
2023-04-26T22:12:37.263Z,8.40
2023-04-26T22:15:25.967Z,8.40
2023-04-26T22:18:14.679Z,8.40
2023-04-26T22:21:03.851Z,8.40
2023-04-26T22:23:52.606Z,8.30
2023-04-26T22:26:42.809Z,8.40
2023-04-26T22:29:32.068Z,8.40
2023-04-26T22:32:21.243Z,8.30
2023-04-26T22:35:10.304Z,8.40
2023-04-26T22:37:59.166Z,8.50
2023-04-26T22:40:48.327Z,8.40
2023-04-26T22:43:38.543Z,8.30
2023-04-26T22:46:31.334Z,8.20
2023-04-26T22:49:20.202Z,8.20
2023-04-26T22:52:23.732Z,8.20
2023-04-26T22:55:19.770Z,8.10
2023-04-26T22:58:10.759Z,8.10
2023-04-26T23:01:04.786Z,8.10
2023-04-26T23:03:53.901Z,8.10
2023-04-26T23:06:43.700Z,8.20
2023-04-26T23:09:32.589Z,8.00
2023-04-26T23:12:21.324Z,8.00
2023-04-26T23:15:11.927Z,7.90
2023-04-26T23:18:05.363Z,8.00
2023-04-26T23:20:58.009Z,8.00
2023-04-26T23:23:46.644Z,8.00
2023-04-26T23:26:35.601Z,8.10
2023-04-26T23:29:24.413Z,8.00
2023-04-26T23:32:13.352Z,7.90
2023-04-26T23:35:03.725Z,7.90
2023-04-26T23:37:53.388Z,7.80
2023-04-26T23:40:42.014Z,7.70
2023-04-26T23:43:30.998Z,7.80
2023-04-26T23:46:19.758Z,7.80
2023-04-26T23:49:10.708Z,7.90
2023-04-26T23:52:01.053Z,7.80
2023-04-26T23:54:51.103Z,7.80
2023-04-26T23:57:39.796Z,7.80
